Time;durP1;ratioP1;P1;durP2;ratioP2;P2;SDS_P1;SDS_P2;PMS_P1;PMS_P2;Temp;Humidity;BMP_temperature;BMP_pressure;BME280_temperature;BME280_humidity;BME280_pressure;Samples;Min_cycle;Max_cycle;Signal;HPM_P1;HPM_P2
2020/12/16 00:02:54;;;;;;;73.30;27.85;;;;;;;7.11;100.00;100388.84;10448526;28;20053;-71
2020/12/16 00:07:55;;;;;;;74.90;28.35;;;;;;;7.17;100.00;100387.75;10431611;28;20045;-71
2020/12/16 00:12:55;;;;;;;85.68;34.42;;;;;;;7.13;100.00;100387.06;10449347;28;20060;-71
2020/12/16 00:17:57;;;;;;;82.53;32.03;;;;;;;7.14;100.00;100391.34;10449572;28;20052;-71
2020/12/16 00:22:58;;;;;;;84.45;33.88;;;;;;;7.18;100.00;100410.28;10431562;28;20080;-74
2020/12/16 00:27:59;;;;;;;82.78;34.22;;;;;;;7.23;100.00;100418.75;10448897;28;20060;-73
2020/12/16 00:33:00;;;;;;;110.68;34.38;;;;;;;7.25;100.00;100410.00;10430544;28;20049;-73
2020/12/16 00:38:01;;;;;;;76.03;27.35;;;;;;;7.28;100.00;100420.28;10433571;28;20531;-73
2020/12/16 00:43:02;;;;;;;72.45;26.88;;;;;;;7.24;100.00;100413.50;10430875;28;20048;-72
2020/12/16 00:48:03;;;;;;;78.13;28.98;;;;;;;7.28;100.00;100420.28;10449037;28;20194;-70
2020/12/16 00:53:04;;;;;;;77.50;29.92;;;;;;;7.28;100.00;100415.06;10448736;28;20049;-71
2020/12/16 00:58:04;;;;;;;73.07;27.40;;;;;;;7.30;100.00;100433.25;10456223;28;20052;-71
2020/12/16 01:03:06;;;;;;;66.45;23.20;;;;;;;7.30;100.00;100428.03;10455238;28;20473;-71
2020/12/16 01:08:07;;;;;;;129.82;31.67;;;;;;;7.24;100.00;100428.28;10455805;28;20049;-71
2020/12/16 01:13:08;;;;;;;71.05;25.17;;;;;;;7.22;100.00;100427.47;10455739;28;20045;-71
2020/12/16 01:18:09;;;;;;;55.30;17.23;;;;;;;7.22;100.00;100424.88;10455561;28;20071;-70
2020/12/16 01:23:10;;;;;;;55.35;14.73;;;;;;;7.11;100.00;100427.06;10455304;28;20053;-70
2020/12/16 01:28:11;;;;;;;83.72;15.02;;;;;;;7.06;100.00;100421.22;10455160;28;20487;-71
2020/12/16 01:33:12;;;;;;;47.00;12.05;;;;;;;6.95;100.00;100425.97;10453950;28;20132;-71
2020/12/16 01:38:13;;;;;;;25.60;10.32;;;;;;;6.83;100.00;100441.16;10454655;28;20516;-71
2020/12/16 01:43:14;;;;;;;37.40;9.52;;;;;;;6.70;100.00;100449.47;10454628;28;20063;-71
2020/12/16 01:48:15;;;;;;;27.27;9.80;;;;;;;6.61;100.00;100452.41;10454405;28;20044;-72
2020/12/16 01:53:16;;;;;;;45.28;10.23;;;;;;;6.58;100.00;100448.19;10436152;28;20052;-71
2020/12/16 01:58:19;;;;;;;19.75;8.98;;;;;;;6.52;100.00;100457.94;10453342;28;20106;-71
2020/12/16 02:03:21;;;;;;;29.45;9.80;;;;;;;6.46;100.00;100464.22;10452581;28;20470;-71
2020/12/16 02:08:26;;;;;;;27.00;9.05;;;;;;;6.29;100.00;100464.84;10452305;28;20787;-71
2020/12/16 02:13:27;;;;;;;21.92;9.35;;;;;;;6.24;100.00;100452.91;10452933;28;20076;-71
2020/12/16 02:18:28;;;;;;;33.05;10.40;;;;;;;6.24;100.00;100466.75;10435269;28;20045;-71
2020/12/16 02:23:32;;;;;;;28.55;10.20;;;;;;;6.24;100.00;100468.50;10452360;28;20044;-71
2020/12/16 02:28:33;;;;;;;45.05;11.40;;;;;;;6.27;100.00;100458.84;10452759;28;20048;-71
2020/12/16 02:33:34;;;;;;;31.98;11.45;;;;;;;6.25;100.00;100460.63;10451199;28;20053;-72
2020/12/16 02:38:46;;;;;;;28.77;10.85;;;;;;;6.28;100.00;100460.53;10452124;28;20048;-72
2020/12/16 02:43:47;;;;;;;35.35;12.30;;;;;;;6.30;100.00;100461.31;10451756;28;20508;-72
2020/12/16 02:48:48;;;;;;;42.28;13.65;;;;;;;6.28;100.00;100451.91;10452054;28;20081;-71
2020/12/16 02:53:49;;;;;;;49.95;13.75;;;;;;;6.24;100.00;100445.13;10451996;28;20052;-71
2020/12/16 02:58:50;;;;;;;64.80;15.27;;;;;;;6.36;100.00;100447.25;10451257;28;20045;-71
2020/12/16 03:03:51;;;;;;;40.67;14.23;;;;;;;6.32;100.00;100445.69;10450396;28;20052;-71
2020/12/16 03:08:52;;;;;;;37.75;13.48;;;;;;;6.23;100.00;100435.63;10450999;28;20037;-71
2020/12/16 03:13:53;;;;;;;43.97;14.40;;;;;;;6.19;100.00;100437.50;10451194;28;20063;-71
2020/12/16 03:18:54;;;;;;;51.78;15.13;;;;;;;6.21;100.00;100437.41;10433306;28;20072;-71
2020/12/16 03:23:55;;;;;;;43.70;14.25;;;;;;;6.16;100.00;100440.19;10450202;28;20045;-72
2020/12/16 03:28:59;;;;;;;70.57;16.02;;;;;;;6.23;100.00;100446.00;10433347;28;20045;-72
2020/12/16 03:34:00;;;;;;;45.85;13.52;;;;;;;6.26;100.00;100443.28;10449714;28;20052;-72
2020/12/16 03:39:03;;;;;;;42.70;14.25;;;;;;;6.25;100.00;100446.78;10450325;28;20382;-71
2020/12/16 03:44:04;;;;;;;42.50;14.43;;;;;;;6.26;100.00;100435.50;10432765;28;20493;-72
2020/12/16 03:49:06;;;;;;;49.40;15.13;;;;;;;6.23;100.00;100446.88;10450005;28;20456;-71
2020/12/16 03:54:07;;;;;;;38.15;14.10;;;;;;;6.17;100.00;100447.06;10450173;28;20136;-72
2020/12/16 03:59:08;;;;;;;46.75;15.45;;;;;;;6.17;100.00;100448.81;10450108;28;20049;-72
2020/12/16 04:04:10;;;;;;;36.28;13.27;;;;;;;6.21;100.00;100458.19;10449074;28;20457;-71
2020/12/16 04:09:12;;;;;;;36.17;12.98;;;;;;;6.27;100.00;100461.44;10449374;28;20451;-71
2020/12/16 04:14:13;;;;;;;38.95;13.50;;;;;;;6.27;100.00;100464.03;10449640;28;20107;-71
2020/12/16 04:19:14;;;;;;;48.83;14.50;;;;;;;6.28;100.00;100470.09;10431959;28;20052;-71
2020/12/16 04:24:15;;;;;;;46.95;14.35;;;;;;;6.24;100.00;100478.91;10431348;28;20136;-71
2020/12/16 04:29:16;;;;;;;45.58;14.13;;;;;;;6.22;100.00;100485.91;10451431;28;20390;-71
2020/12/16 04:34:18;;;;;;;46.53;14.23;;;;;;;6.27;100.00;100484.84;10456189;28;20049;-71
2020/12/16 04:39:19;;;;;;;42.22;14.10;;;;;;;6.30;100.00;100483.84;10456735;28;20488;-71
2020/12/16 04:44:20;;;;;;;44.30;14.48;;;;;;;6.30;100.00;100483.84;10456802;28;20060;-72
2020/12/16 04:49:21;;;;;;;49.80;15.70;;;;;;;6.37;100.00;100485.34;10438845;28;20049;-71
2020/12/16 04:54:22;;;;;;;48.88;16.17;;;;;;;6.41;100.00;100492.97;10456676;28;20053;-71
2020/12/16 04:59:23;;;;;;;51.88;16.23;;;;;;;6.44;100.00;100489.44;10456056;28;20490;-71
2020/12/16 05:04:24;;;;;;;47.08;16.85;;;;;;;6.37;100.00;100494.00;10454901;28;20059;-71
2020/12/16 05:09:25;;;;;;;43.75;15.63;;;;;;;6.47;100.00;100494.53;10455895;28;20049;-71
2020/12/16 05:14:26;;;;;;;45.88;14.95;;;;;;;6.35;100.00;100498.41;10455424;28;20052;-71
2020/12/16 05:19:30;;;;;;;39.72;14.75;;;;;;;6.31;100.00;100498.56;10455852;28;20099;-71
2020/12/16 05:24:31;;;;;;;46.28;15.98;;;;;;;6.36;100.00;100505.28;10454715;28;20550;-71
2020/12/16 05:29:32;;;;;;;40.90;14.82;;;;;;;6.45;100.00;100509.31;10456039;28;20076;-71
2020/12/16 05:34:34;;;;;;;39.20;13.90;;;;;;;6.47;100.00;100504.91;10454788;28;20420;-71
2020/12/16 05:39:35;;;;;;;43.55;15.93;;;;;;;6.49;100.00;100510.06;10455520;28;20080;-72
2020/12/16 05:44:36;;;;;;;47.13;16.75;;;;;;;6.58;100.00;100500.19;10436163;28;20056;-71
2020/12/16 05:49:37;;;;;;;46.15;16.02;;;;;;;6.54;100.00;100498.59;10454247;28;20041;-72
2020/12/16 05:54:38;;;;;;;50.35;16.35;;;;;;;6.56;100.00;100506.31;10453927;28;20084;-71
2020/12/16 05:59:39;;;;;;;54.83;18.77;;;;;;;6.60;100.00;100511.41;10453236;28;20109;-71
2020/12/16 06:04:41;;;;;;;44.50;15.63;;;;;;;6.56;100.00;100512.38;10452649;28;20052;-71
2020/12/16 06:09:42;;;;;;;46.50;15.43;;;;;;;6.58;100.00;100507.13;10435451;28;20549;-72
2020/12/16 06:14:43;;;;;;;43.15;15.30;;;;;;;6.55;100.00;100523.72;10453121;28;20072;-73
2020/12/16 06:19:44;;;;;;;58.85;18.60;;;;;;;6.54;100.00;100522.00;10435498;28;20049;-73
2020/12/16 06:24:45;;;;;;;52.83;16.95;;;;;;;6.58;100.00;100510.59;10451720;28;20497;-72
2020/12/16 06:29:48;;;;;;;68.95;18.73;;;;;;;6.57;100.00;100516.69;10452493;28;20465;-72
2020/12/16 06:34:54;;;;;;;59.17;18.70;;;;;;;6.53;100.00;100529.84;10452296;28;20047;-72
2020/12/16 06:39:54;;;;;;;53.47;17.58;;;;;;;6.50;100.00;100535.19;10454026;28;20049;-72
2020/12/16 06:45:31;;;;;;;51.60;17.42;;;;;;;6.45;100.00;100541.38;10452632;28;20052;-72
2020/12/16 06:50:32;;;;;;;60.60;18.67;;;;;;;6.48;100.00;100558.63;10409596;28;20048;-73
2020/12/16 06:55:33;;;;;;;49.83;17.05;;;;;;;6.50;100.00;100559.44;10452351;28;20564;-73
2020/12/16 07:00:34;;;;;;;46.03;17.23;;;;;;;6.52;100.00;100560.22;10451009;28;20419;-73
2020/12/16 07:05:37;;;;;;;45.47;17.60;;;;;;;6.55;100.00;100556.66;10446989;28;20424;-72
2020/12/16 07:10:44;;;;;;;45.10;18.48;;;;;;;6.53;100.00;100571.47;10451801;28;20044;-71
2020/12/16 07:15:58;;;;;;;48.22;18.67;;;;;;;6.54;100.00;100574.00;10452840;28;20045;-71
2020/12/16 07:21:23;;;;;;;59.97;20.95;;;;;;;6.60;100.00;100571.22;10451847;28;20049;-71
2020/12/16 07:26:26;;;;;;;51.58;19.60;;;;;;;6.60;100.00;100580.75;10451439;28;20053;-70
2020/12/16 07:31:27;;;;;;;55.45;19.80;;;;;;;6.59;100.00;100577.31;10433610;28;20049;-70
2020/12/16 07:36:29;;;;;;;46.63;18.73;;;;;;;6.63;100.00;100588.44;10451861;28;20139;-71
2020/12/16 07:41:30;;;;;;;58.13;21.58;;;;;;;6.67;100.00;100588.28;10450919;28;20057;-70
2020/12/16 07:46:31;;;;;;;52.17;21.60;;;;;;;6.65;100.00;100584.91;10434102;28;20048;-70
2020/12/16 07:51:32;;;;;;;48.88;21.23;;;;;;;6.69;100.00;100594.28;10450658;28;20057;-70
2020/12/16 07:56:33;;;;;;;56.42;23.30;;;;;;;6.66;100.00;100589.16;10452205;28;20274;-70
2020/12/16 08:01:34;;;;;;;49.13;20.55;;;;;;;6.61;100.00;100591.09;10432550;28;20053;-70
2020/12/16 08:06:41;;;;;;;57.10;22.55;;;;;;;6.72;100.00;100581.16;10459071;28;20090;-70
2020/12/16 08:11:45;;;;;;;49.50;20.55;;;;;;;6.79;100.00;100587.84;10460881;28;20144;-71
2020/12/16 08:16:46;;;;;;;53.33;20.75;;;;;;;6.78;100.00;100586.16;10461720;28;20057;-70
2020/12/16 08:21:49;;;;;;;54.35;20.67;;;;;;;6.86;100.00;100585.84;10441250;28;20052;-70
2020/12/16 08:26:50;;;;;;;53.30;21.13;;;;;;;6.92;100.00;100587.38;10459187;28;20052;-71
2020/12/16 08:31:52;;;;;;;58.63;21.00;;;;;;;6.84;100.00;100592.88;10458563;28;20055;-70
2020/12/16 08:36:56;;;;;;;47.10;20.33;;;;;;;6.88;100.00;100597.06;10459286;28;20060;-70
2020/12/16 08:41:57;;;;;;;46.80;20.70;;;;;;;6.88;100.00;100595.31;10469103;28;20053;-71
2020/12/16 08:46:58;;;;;;;68.88;23.05;;;;;;;6.91;100.00;100591.75;10458090;28;20049;-71
2020/12/16 08:51:59;;;;;;;48.67;22.13;;;;;;;6.92;100.00;100582.19;10439373;28;20552;-71
2020/12/16 08:57:01;;;;;;;56.70;23.35;;;;;;;6.98;100.00;100582.81;10457997;28;20099;-71
2020/12/16 09:02:08;;;;;;;57.10;23.02;;;;;;;7.13;100.00;100591.81;10438496;28;20083;-70
2020/12/16 09:07:12;;;;;;;48.35;20.88;;;;;;;7.16;100.00;100604.75;10457207;28;20481;-71
2020/12/16 09:12:15;;;;;;;36.35;16.70;;;;;;;7.21;100.00;100603.63;10439954;28;20123;-71
2020/12/16 09:17:16;;;;;;;34.80;15.93;;;;;;;7.45;100.00;100611.44;10457540;28;20053;-71
2020/12/16 09:22:25;;;;;;;28.50;14.68;;;;;;;7.54;100.00;100618.91;10455794;28;20094;-71
2020/12/16 09:27:26;;;;;;;29.58;15.10;;;;;;;7.78;100.00;100617.09;10438440;28;20041;-71
2020/12/16 09:32:28;;;;;;;26.98;15.30;;;;;;;7.88;100.00;100619.28;10455215;28;20107;-71
2020/12/16 09:37:33;;;;;;;28.20;14.63;;;;;;;7.77;100.00;100611.06;10457685;28;20056;-71
2020/12/16 09:42:34;;;;;;;29.00;14.48;;;;;;;7.83;100.00;100609.94;10456497;28;20068;-71
2020/12/16 09:47:42;;;;;;;35.30;18.35;;;;;;;7.73;100.00;100594.69;10456651;28;20052;-71
2020/12/16 09:52:43;;;;;;;29.52;16.80;;;;;;;7.78;100.00;100591.88;10456167;28;20049;-70
2020/12/16 09:57:44;;;;;;;30.05;18.05;;;;;;;7.84;100.00;100602.06;10437544;28;20053;-70
2020/12/16 10:02:45;;;;;;;28.35;17.60;;;;;;;7.90;100.00;100601.00;10435732;28;20053;-71
2020/12/16 10:07:47;;;;;;;35.85;18.83;;;;;;;7.93;100.00;100587.81;10436287;28;20451;-70
2020/12/16 10:12:49;;;;;;;31.17;17.20;;;;;;;7.69;100.00;100592.25;10438140;28;20587;-70
2020/12/16 10:17:52;;;;;;;28.70;16.33;;;;;;;7.60;100.00;100595.22;10436723;28;20049;-72
2020/12/16 10:22:53;;;;;;;78.22;19.45;;;;;;;7.64;100.00;100586.38;10435901;28;20057;-70
2020/12/16 10:27:54;;;;;;;31.05;18.05;;;;;;;7.61;100.00;100587.38;10453714;28;20124;-71
2020/12/16 10:32:56;;;;;;;40.38;18.50;;;;;;;7.66;100.00;100584.59;10454019;28;20123;-70
2020/12/16 10:37:58;;;;;;;69.90;22.30;;;;;;;7.70;100.00;100588.75;10454470;28;20045;-70
2020/12/16 10:42:59;;;;;;;40.75;20.42;;;;;;;7.81;100.00;100585.72;10453090;28;20057;-70
2020/12/16 10:48:01;;;;;;;110.53;23.25;;;;;;;7.84;100.00;100581.22;10453469;28;20064;-72
2020/12/16 10:53:02;;;;;;;43.05;21.58;;;;;;;7.90;100.00;100580.13;10453228;28;20080;-72
2020/12/16 10:58:04;;;;;;;38.50;20.98;;;;;;;7.93;100.00;100586.06;10453121;28;20048;-69
2020/12/16 11:03:05;;;;;;;42.67;21.80;;;;;;;8.03;100.00;100576.09;10451021;28;20045;-69
2020/12/16 11:08:06;;;;;;;40.53;20.13;;;;;;;8.06;100.00;100565.56;10452019;28;20041;-69
2020/12/16 11:13:07;;;;;;;42.50;20.05;;;;;;;8.17;100.00;100558.16;10453472;28;20045;-69
2020/12/16 11:18:08;;;;;;;32.05;17.40;;;;;;;8.33;100.00;100542.75;10452027;28;20049;-69
2020/12/16 11:23:09;;;;;;;34.65;17.02;;;;;;;8.43;100.00;100546.66;10452057;28;20057;-69
2020/12/16 11:28:10;;;;;;;37.42;19.95;;;;;;;8.46;100.00;100539.53;10452102;28;20064;-69
2020/12/16 11:33:11;;;;;;;35.17;18.55;;;;;;;8.30;100.00;100529.81;10452849;28;20132;-71
2020/12/16 11:38:12;;;;;;;34.20;18.00;;;;;;;8.38;100.00;100525.97;10452406;28;20048;-71
2020/12/16 11:43:12;;;;;;;52.65;20.83;;;;;;;8.46;100.00;100525.66;10450988;28;20060;-70
2020/12/16 11:48:13;;;;;;;37.53;19.20;;;;;;;8.37;100.00;100529.53;10451429;28;20139;-70
2020/12/16 11:53:18;;;;;;;39.90;20.55;;;;;;;8.32;100.00;100531.47;10451562;28;20053;-71
2020/12/16 11:58:19;;;;;;;46.92;23.33;;;;;;;8.36;100.00;100532.19;10450181;28;20512;-70
2020/12/16 12:03:20;;;;;;;40.55;21.38;;;;;;;8.21;100.00;100544.09;10449844;28;20103;-70
2020/12/16 12:08:21;;;;;;;38.30;20.27;;;;;;;8.31;100.00;100523.72;10432417;28;20488;-70
2020/12/16 12:13:22;;;;;;;40.55;21.00;;;;;;;8.05;100.00;100523.03;10453124;28;20504;-71
2020/12/16 12:18:24;;;;;;;51.80;23.55;;;;;;;7.96;100.00;100522.56;10432739;28;20095;-71
2020/12/16 12:23:25;;;;;;;48.63;23.10;;;;;;;7.90;100.00;100517.59;10449421;28;20053;-70
2020/12/16 12:28:26;;;;;;;43.25;22.30;;;;;;;7.81;100.00;100517.97;10449611;28;20052;-70
2020/12/16 12:33:26;;;;;;;50.83;22.80;;;;;;;7.96;100.00;100518.19;10431032;28;20147;-70
2020/12/16 12:38:27;;;;;;;44.55;21.00;;;;;;;7.97;100.00;100514.69;10449615;28;20053;-71
2020/12/16 12:43:28;;;;;;;48.70;23.17;;;;;;;8.12;100.00;100505.38;10485218;28;20048;-71
2020/12/16 12:48:30;;;;;;;61.78;24.77;;;;;;;8.10;100.00;100495.00;10490906;28;20052;-70
2020/12/16 12:53:31;;;;;;;51.75;26.73;;;;;;;8.00;100.00;100503.28;10465542;28;20045;-72
2020/12/16 12:58:32;;;;;;;63.92;29.38;;;;;;;8.15;100.00;100497.41;10457419;28;20052;-72
2020/12/16 13:03:33;;;;;;;54.05;28.58;;;;;;;8.21;100.00;100498.91;10456595;28;20061;-73
2020/12/16 13:08:37;;;;;;;56.63;26.95;;;;;;;8.15;100.00;100502.63;10457670;28;20045;-72
2020/12/16 13:13:38;;;;;;;52.25;24.95;;;;;;;8.26;100.00;100496.94;10442163;28;20056;-74
2020/12/16 13:18:39;;;;;;;44.83;23.15;;;;;;;8.07;100.00;100509.94;10460772;28;20057;-72
2020/12/16 13:23:40;;;;;;;47.30;22.88;;;;;;;8.12;100.00;100502.75;10456404;28;20404;-73
2020/12/16 13:28:41;;;;;;;46.42;22.67;;;;;;;8.15;100.00;100503.47;10457269;28;20069;-73
2020/12/16 13:33:42;;;;;;;50.30;22.10;;;;;;;8.26;100.00;100515.19;10455011;28;20103;-73
2020/12/16 13:38:43;;;;;;;40.53;20.77;;;;;;;8.36;100.00;100506.09;10456182;28;20085;-72
2020/12/16 13:43:44;;;;;;;39.95;21.17;;;;;;;8.30;100.00;100496.78;10455038;28;20045;-72
2020/12/16 13:48:45;;;;;;;45.20;22.25;;;;;;;8.11;100.00;100496.69;10438284;28;20041;-71
2020/12/16 13:53:46;;;;;;;49.92;24.02;;;;;;;8.08;100.00;100511.59;10454351;28;20110;-71
2020/12/16 13:58:47;;;;;;;45.53;23.98;;;;;;;8.13;100.00;100510.50;10454666;28;20420;-71
2020/12/16 14:03:48;;;;;;;53.55;25.38;;;;;;;8.08;100.00;100509.00;10439938;28;20079;-70
2020/12/16 14:08:49;;;;;;;49.55;23.20;;;;;;;7.96;100.00;100493.88;10495254;28;20045;-70
2020/12/16 14:13:52;;;;;;;58.53;25.38;;;;;;;7.95;100.00;100502.63;10451807;28;20504;-72
2020/12/16 14:18:53;;;;;;;54.70;25.77;;;;;;;7.92;100.00;100513.19;10436122;28;20049;-72
2020/12/16 14:23:54;;;;;;;61.47;23.33;;;;;;;7.86;100.00;100505.59;10452676;28;20056;-72
2020/12/16 14:28:57;;;;;;;54.45;23.05;;;;;;;7.88;100.00;100498.56;10453390;28;20080;-72
2020/12/16 14:33:59;;;;;;;92.22;25.02;;;;;;;7.77;100.00;100506.00;10434192;28;20052;-72
2020/12/16 14:39:00;;;;;;;103.32;25.45;;;;;;;7.85;100.00;100514.34;10435565;28;20493;-71
2020/12/16 14:44:03;;;;;;;58.30;22.00;;;;;;;7.66;100.00;100509.03;10453806;28;20562;-71
2020/12/16 14:49:05;;;;;;;65.03;19.63;;;;;;;7.60;100.00;100506.66;10435479;28;20041;-71
2020/12/16 14:54:06;;;;;;;157.80;25.80;;;;;;;7.67;100.00;100516.75;10454161;28;20049;-72
2020/12/16 14:59:07;;;;;;;129.38;22.65;;;;;;;7.52;100.00;100526.94;10451987;28;20608;-71
2020/12/16 15:04:09;;;;;;;125.13;23.48;;;;;;;7.43;100.00;100522.09;10451197;28;20048;-71
2020/12/16 15:09:10;;;;;;;85.35;22.35;;;;;;;7.52;100.00;100526.94;10434105;28;20138;-70
2020/12/16 15:14:11;;;;;;;186.57;26.83;;;;;;;7.34;100.00;100536.34;10432639;28;20128;-70
2020/12/16 15:19:12;;;;;;;101.95;24.13;;;;;;;7.32;100.00;100540.75;10448545;28;20049;-70
2020/12/16 15:24:13;;;;;;;131.85;26.67;;;;;;;7.46;100.00;100551.50;10450188;28;20054;-71
2020/12/16 15:29:14;;;;;;;51.45;22.30;;;;;;;7.38;100.00;100558.75;10450615;28;20488;-71
2020/12/16 15:34:15;;;;;;;105.72;26.10;;;;;;;7.32;100.00;100548.56;10450011;28;20060;-70
2020/12/16 15:39:17;;;;;;;79.07;24.00;;;;;;;7.27;100.00;100532.28;10450620;28;20062;-70
2020/12/16 15:44:18;;;;;;;84.45;25.45;;;;;;;7.23;100.00;100536.75;10450859;28;20113;-71
2020/12/16 15:49:21;;;;;;;50.15;22.08;;;;;;;7.19;100.00;100540.38;10448145;28;20056;-71
2020/12/16 15:54:22;;;;;;;54.88;22.88;;;;;;;7.19;100.00;100544.75;10451137;28;20061;-70
2020/12/16 15:59:23;;;;;;;60.75;22.88;;;;;;;7.19;100.00;100542.13;10449062;28;20049;-69
2020/12/16 16:04:25;;;;;;;146.15;27.30;;;;;;;7.30;100.00;100537.38;10432089;28;20045;-70
2020/12/16 16:09:26;;;;;;;39.95;21.02;;;;;;;7.20;100.00;100533.44;10450124;28;20060;-70
2020/12/16 16:14:27;;;;;;;53.88;22.15;;;;;;;7.14;100.00;100531.06;10450005;28;20520;-70
2020/12/16 16:19:28;;;;;;;50.63;21.90;;;;;;;7.12;100.00;100541.50;10432546;28;20053;-71
2020/12/16 16:24:29;;;;;;;42.70;21.60;;;;;;;7.12;100.00;100543.25;10450357;28;20091;-72
2020/12/16 16:29:32;;;;;;;63.35;20.13;;;;;;;7.07;100.00;100540.00;10458205;28;20084;-71
2020/12/16 16:34:33;;;;;;;45.83;20.25;;;;;;;6.87;100.00;100544.19;10457580;28;20095;-68
2020/12/16 16:39:34;;;;;;;32.45;18.27;;;;;;;6.93;100.00;100537.06;10456850;28;20048;-72
2020/12/16 16:44:35;;;;;;;57.88;19.20;;;;;;;6.98;100.00;100541.19;10457541;28;20063;-68
2020/12/16 16:49:36;;;;;;;42.05;20.50;;;;;;;6.96;100.00;100537.78;10457163;28;20049;-70
2020/12/16 16:54:37;;;;;;;43.38;18.63;;;;;;;6.98;100.00;100545.53;10457047;28;20413;-69
2020/12/16 16:59:38;;;;;;;36.03;20.05;;;;;;;6.96;100.00;100539.56;10457506;28;20056;-70
2020/12/16 17:04:45;;;;;;;41.90;19.73;;;;;;;7.01;100.00;100550.66;10438746;28;20119;-69
2020/12/16 17:09:50;;;;;;;102.00;20.58;;;;;;;6.97;100.00;100549.03;10456313;28;20051;-71
2020/12/16 17:14:51;;;;;;;35.67;15.93;;;;;;;6.95;100.00;100554.31;10438561;28;20049;-70
2020/12/16 17:19:52;;;;;;;31.98;15.60;;;;;;;6.93;100.00;100560.47;10438389;28;20045;-70
2020/12/16 17:24:53;;;;;;;41.50;16.27;;;;;;;6.87;100.00;100556.34;10455124;28;20049;-71
2020/12/16 17:29:54;;;;;;;24.52;11.95;;;;;;;6.77;100.00;100557.56;10454474;28;20416;-71
2020/12/16 17:35:04;;;;;;;20.13;11.20;;;;;;;6.67;100.00;100562.25;10457014;28;20095;-70
2020/12/16 17:40:06;;;;;;;22.25;10.35;;;;;;;6.64;100.00;100567.59;10454883;28;20080;-71
2020/12/16 17:45:07;;;;;;;44.33;12.02;;;;;;;6.65;100.00;100564.09;10455095;28;20123;-70
2020/12/16 17:50:08;;;;;;;48.53;10.05;;;;;;;6.53;100.00;100568.84;10454234;28;20367;-71
2020/12/16 17:55:12;;;;;;;34.30;11.25;;;;;;;6.47;100.00;100574.25;10453822;28;20076;-70
2020/12/16 18:00:18;;;;;;;79.45;12.02;;;;;;;6.38;100.00;100573.69;10435581;28;20053;-71
2020/12/16 18:05:35;;;;;;;53.10;12.10;;;;;;;6.34;100.00;100579.91;10439400;28;20052;-71
2020/12/16 18:10:37;;;;;;;56.05;11.63;;;;;;;6.33;100.00;100592.94;10453709;28;20099;-71
2020/12/16 18:15:38;;;;;;;27.65;11.13;;;;;;;6.32;100.00;100586.91;10453196;28;20056;-71
2020/12/16 18:20:39;;;;;;;27.25;11.98;;;;;;;6.35;100.00;100596.31;10453896;28;20049;-69
2020/12/16 18:25:40;;;;;;;46.60;11.90;;;;;;;6.32;100.00;100592.09;10452508;28;20384;-70
2020/12/16 18:30:41;;;;;;;85.78;12.38;;;;;;;6.44;100.00;100598.63;10451862;28;20052;-70
2020/12/16 18:35:57;;;;;;;117.85;13.82;;;;;;;6.31;100.00;100585.19;10452250;28;20051;-71
2020/12/16 18:40:59;;;;;;;21.45;10.30;;;;;;;6.30;100.00;100604.28;10435204;28;20080;-71
2020/12/16 18:46:03;;;;;;;30.13;11.45;;;;;;;6.32;100.00;100602.50;10434664;28;20053;-71
2020/12/16 18:51:06;;;;;;;58.53;14.93;;;;;;;6.35;100.00;100593.72;10451377;28;20048;-71
2020/12/16 18:56:07;;;;;;;36.60;12.05;;;;;;;6.26;100.00;100586.25;10434191;28;20048;-71
2020/12/16 19:01:09;;;;;;;34.00;11.88;;;;;;;6.17;100.00;100607.34;10450966;28;20044;-71
2020/12/16 19:06:15;;;;;;;37.80;11.23;;;;;;;6.15;100.00;100616.94;10451549;28;20103;-70
2020/12/16 19:11:16;;;;;;;33.58;10.70;;;;;;;6.11;100.00;100600.59;10451184;28;20095;-70
2020/12/16 19:16:17;;;;;;;22.88;11.35;;;;;;;6.13;100.00;100605.75;10450976;28;20049;-70
2020/12/16 19:21:18;;;;;;;24.85;10.90;;;;;;;6.28;100.00;100611.28;10450820;28;20041;-70
2020/12/16 19:26:20;;;;;;;25.80;11.45;;;;;;;6.26;100.00;100615.69;10452129;28;20505;-70
2020/12/16 19:31:22;;;;;;;79.90;19.38;;;;;;;6.20;100.00;100621.06;10450225;28;20468;-71
2020/12/16 19:36:28;;;;;;;20.13;8.50;;;;;;;6.09;100.00;100606.75;10451476;28;20135;-71
2020/12/16 19:41:32;;;;;;;128.85;11.27;;;;;;;6.11;100.00;100600.59;10450759;28;20487;-72
2020/12/16 19:46:44;;;;;;;24.63;8.65;;;;;;;5.90;100.00;100603.88;10432522;28;20111;-71
2020/12/16 19:51:46;;;;;;;16.17;7.40;;;;;;;5.94;100.00;100616.72;10450238;28;20048;-72
2020/12/16 19:56:57;;;;;;;26.95;8.43;;;;;;;5.89;100.00;100603.03;10450653;28;20056;-70
2020/12/16 20:01:59;;;;;;;17.23;7.25;;;;;;;5.93;100.00;100620.25;10456949;28;20045;-70
2020/12/16 20:07:01;;;;;;;55.53;18.30;;;;;;;5.92;100.00;100613.34;10458738;28;20056;-71
2020/12/16 20:12:02;;;;;;;13.90;7.57;;;;;;;5.88;100.00;100613.50;10458184;28;20053;-71
2020/12/16 20:17:03;;;;;;;22.70;11.90;;;;;;;5.92;100.00;100621.13;10458684;28;20076;-71
2020/12/16 20:22:04;;;;;;;63.65;16.30;;;;;;;5.92;100.00;100604.69;10457755;28;20045;-71
2020/12/16 20:27:05;;;;;;;40.75;14.73;;;;;;;5.87;100.00;100624.78;10457960;28;20049;-70
2020/12/16 20:32:06;;;;;;;20.13;10.43;;;;;;;5.86;100.00;100631.69;10439038;28;20052;-71
2020/12/16 20:37:10;;;;;;;12.00;6.85;;;;;;;5.89;100.00;100633.38;10457557;28;20048;-70
2020/12/16 20:42:11;;;;;;;18.20;7.82;;;;;;;5.88;100.00;100642.91;10439815;28;20049;-71
2020/12/16 20:47:11;;;;;;;12.75;8.00;;;;;;;5.91;100.00;100629.81;10457125;28;20055;-71
2020/12/16 20:52:12;;;;;;;21.60;9.18;;;;;;;5.88;100.00;100632.53;10457208;28;20510;-72
2020/12/16 20:57:13;;;;;;;26.90;8.75;;;;;;;5.86;100.00;100629.09;10457614;28;20496;-71
2020/12/16 21:02:15;;;;;;;20.80;8.00;;;;;;;5.86;100.00;100626.47;10456189;28;20049;-72
2020/12/16 21:07:25;;;;;;;28.33;9.07;;;;;;;5.83;100.00;100629.19;10458061;28;20497;-72
2020/12/16 21:12:26;;;;;;;40.22;9.65;;;;;;;5.93;100.00;100615.03;10458836;28;20045;-70
2020/12/16 21:17:28;;;;;;;16.30;8.57;;;;;;;5.92;100.00;100613.34;10456540;28;20095;-71
2020/12/16 21:22:29;;;;;;;17.45;8.98;;;;;;;5.90;100.00;100619.47;10438017;28;20095;-71
2020/12/16 21:27:30;;;;;;;15.50;9.02;;;;;;;5.93;100.00;100614.19;10455782;28;20412;-71
2020/12/16 21:32:31;;;;;;;21.73;9.40;;;;;;;5.95;100.00;100623.63;10454551;28;20053;-71
2020/12/16 21:37:41;;;;;;;15.10;8.55;;;;;;;5.95;100.00;100626.22;10455532;28;20111;-71
2020/12/16 21:42:42;;;;;;;16.75;9.68;;;;;;;5.99;100.00;100625.22;10454978;28;20056;-71
2020/12/16 21:47:43;;;;;;;14.95;8.52;;;;;;;6.02;100.00;100629.47;10454431;28;20164;-71
2020/12/16 21:52:44;;;;;;;15.63;8.27;;;;;;;5.93;100.00;100625.44;10454972;28;20052;-71
2020/12/16 21:57:49;;;;;;;13.75;8.10;;;;;;;5.97;100.00;100637.44;10454663;28;20053;-71
2020/12/16 22:02:50;;;;;;;22.95;8.85;;;;;;;5.95;100.00;100622.78;10453012;28;20567;-71
2020/12/16 22:08:09;;;;;;;21.90;8.07;;;;;;;5.90;100.00;100624.66;10438769;28;20053;-71
2020/12/16 22:13:10;;;;;;;13.43;7.90;;;;;;;5.83;100.00;100644.78;10453414;28;20076;-71
2020/12/16 22:18:11;;;;;;;19.00;9.00;;;;;;;5.89;100.00;100639.41;10436223;28;20040;-71
2020/12/16 22:23:12;;;;;;;17.48;10.10;;;;;;;5.87;100.00;100640.34;10452379;28;20056;-73
2020/12/16 22:28:13;;;;;;;16.25;9.43;;;;;;;5.86;100.00;100634.28;10453738;28;20060;-74
2020/12/16 22:33:14;;;;;;;16.30;8.93;;;;;;;5.84;100.00;100645.63;10452378;28;20132;-74
2020/12/16 22:38:20;;;;;;;17.00;10.40;;;;;;;5.81;100.00;100645.69;10453424;28;20041;-74